Time;durP1;ratioP1;P1;durP2;ratioP2;P2;SDS_P1;SDS_P2;PMS_P1;PMS_P2;Temp;Humidity;BMP_temperature;BMP_pressure;BME280_temperature;BME280_humidity;BME280_pressure;Samples;Min_cycle;Max_cycle;Signal;HPM_P1;HPM_P2
2021/12/15 00:01:39;;;;;;;;;;;;;;;-0.44;100.00;93647.16;5058966;28;20051;-86
2021/12/15 00:04:06;;;;;;;;;;;;;;;-0.48;100.00;93647.53;5059187;28;20019;-85
2021/12/15 00:06:37;;;;;;;;;;;;;;;-0.52;100.00;93649.53;5058994;28;19929;-87
2021/12/15 00:09:05;;;;;;;;;;;;;;;-0.51;100.00;93647.81;5058460;28;19931;-87
2021/12/15 00:11:36;;;;;;;;;;;;;;;-0.64;100.00;93648.88;5058350;28;19982;-85
2021/12/15 00:14:03;;;;;;;;;;;;;;;-0.68;100.00;93653.34;5058682;28;20323;-86
2021/12/15 00:16:30;;;;;;;;;;;;;;;-0.58;100.00;93660.16;5058560;28;19929;-85
2021/12/15 00:18:56;;;;;;;;;;;;;;;-0.53;100.00;93658.03;5058422;28;19925;-86
2021/12/15 00:21:23;;;;;;;;;;;;;;;-0.45;100.00;93665.75;5058308;28;19951;-85
2021/12/15 00:23:54;;;;;;;;;;;;;;;-0.49;100.00;93659.38;5058158;28;20007;-86
2021/12/15 00:26:22;;;;;;;;;;;;;;;-0.58;100.00;93665.19;5058032;28;20025;-87
2021/12/15 00:28:50;;;;;;;;;;;;;;;-0.49;100.00;93666.94;5057235;28;19924;-87
2021/12/15 00:31:17;;;;;;;;;;;;;;;-0.50;100.00;93665.34;5057986;28;19991;-84
2021/12/15 00:33:44;;;;;;;;;;;;;;;-0.35;100.00;93668.28;5058346;28;19939;-86
2021/12/15 00:36:11;;;;;;;;;;;;;;;-0.22;100.00;93664.72;5058122;28;19932;-84
2021/12/15 00:38:38;;;;;;;;;;;;;;;-0.50;100.00;93669.59;5057886;28;19933;-86
2021/12/15 00:41:07;;;;;;;;;;;;;;;-0.39;100.00;93668.66;5058100;28;19935;-86
2021/12/15 00:43:34;;;;;;;;;;;;;;;-0.27;100.00;93673.47;5058398;28;19980;-85
2021/12/15 00:46:00;;;;;;;;;;;;;;;-0.21;100.00;93661.25;5057981;28;19968;-87
2021/12/15 00:48:28;;;;;;;;;;;;;;;-0.31;100.00;93668.81;5056895;28;19933;-86
2021/12/15 00:50:54;;;;;;;;;;;;;;;-0.35;100.00;93673.34;5057470;28;19932;-85
2021/12/15 00:53:21;;;;;;;;;;;;;;;-0.31;100.00;93668.81;5058017;28;19932;-86
2021/12/15 00:55:47;;;;;;;;;;;;;;;-0.38;100.00;93667.75;5057702;28;19936;-86
2021/12/15 00:58:16;;;;;;;;;;;;;;;-0.47;100.00;93670.13;5057865;28;20400;-85
2021/12/15 01:00:44;;;;;;;;;;;;;;;-0.58;100.00;93662.66;5057522;28;19971;-86
2021/12/15 01:03:11;;;;;;;;;;;;;;;-0.55;100.00;93659.91;5058237;28;19925;-86
2021/12/15 01:05:40;;;;;;;;;;;;;;;-0.52;100.00;93657.09;5056898;28;19929;-85
2021/12/15 01:08:09;;;;;;;;;;;;;;;-0.58;100.00;93655.91;5057628;28;19932;-86
2021/12/15 01:10:51;;;;;;;;;;;;;;;-0.64;100.00;93658.16;5057257;28;19933;-86
2021/12/15 01:21:32;;;;;;;;;;;;;;;-0.45;100.00;93657.38;5057288;28;19978;-87
2021/12/15 01:23:59;;;;;;;;;;;;;;;-0.39;100.00;93651.81;5057079;28;21042;-86
2021/12/15 01:26:36;;;;;;;;;;;;;;;-0.39;100.00;93658.56;5057092;28;20549;-86
2021/12/15 01:29:05;;;;;;;;;;;;;;;-0.23;100.00;93648.75;5057286;28;20019;-86
2021/12/15 01:31:31;;;;;;;;;;;;;;;-0.17;100.00;93645.72;5056610;28;20395;-85
2021/12/15 01:34:00;;;;;;;;;;;;;;;-0.28;100.00;93649.16;5056812;28;19968;-86
2021/12/15 01:36:27;;;;;;;;;;;;;;;-0.21;100.00;93653.69;5056110;28;20409;-86
2021/12/15 01:38:53;;;;;;;;;;;;;;;-0.19;100.00;93652.59;5056673;28;19939;-86
2021/12/15 01:41:22;;;;;;;;;;;;;;;-0.09;100.00;93651.81;5056904;28;19933;-86
2021/12/15 01:46:53;;;;;;;;;;;;;;;-0.24;100.00;93654.72;5056939;28;20343;-86
2021/12/15 01:46:54;;;;;;;;;;;;;;;-0.01;100.00;93644.38;5056611;28;20377;-87
2021/12/15 01:49:22;;;;;;;;;;;;;;;0.09;100.00;93652.72;5057003;28;20379;-86
2021/12/15 01:51:49;;;;;;;;;;;;;;;0.30;100.00;93649.25;5064366;28;19928;-86
2021/12/15 01:54:21;;;;;;;;;;;;;;;0.45;100.00;93647.09;5066740;28;19924;-86
2021/12/15 01:56:48;;;;;;;;;;;;;;;0.58;100.00;93646.00;5066248;28;19939;-86
2021/12/15 01:59:15;;;;;;;;;;;;;;;0.64;100.00;93648.78;5065999;28;20414;-86
2021/12/15 02:01:43;;;;;;;;;;;;;;;0.68;100.00;93644.25;5066226;28;19928;-86
2021/12/15 02:04:10;;;;;;;;;;;;;;;0.74;100.00;93642.91;5066664;28;20010;-88
2021/12/15 02:06:41;;;;;;;;;;;;;;;0.66;100.00;93648.66;5066417;28;19924;-87
2021/12/15 02:09:07;;;;;;;;;;;;;;;0.71;100.00;93648.22;5066216;28;20276;-86
2021/12/15 02:11:34;;;;;;;;;;;;;;;0.71;100.00;93645.69;5066203;28;20037;-85
2021/12/15 02:14:01;;;;;;;;;;;;;;;0.71;100.00;93654.09;5066148;28;19970;-86
2021/12/15 02:16:29;;;;;;;;;;;;;;;0.67;100.00;93655.28;5066149;28;21806;-87
2021/12/15 02:18:57;;;;;;;;;;;;;;;0.74;100.00;93653.81;5066048;28;20329;-85
2021/12/15 02:21:26;;;;;;;;;;;;;;;0.67;100.00;93657.81;5066040;28;19932;-84
2021/12/15 02:23:56;;;;;;;;;;;;;;;0.70;100.00;93652.50;5066460;28;19924;-86
2021/12/15 02:26:25;;;;;;;;;;;;;;;0.70;100.00;93656.75;5066025;28;19938;-85
2021/12/15 02:28:58;;;;;;;;;;;;;;;0.72;100.00;93657.41;5066060;28;19924;-85
2021/12/15 02:31:39;;;;;;;;;;;;;;;0.76;100.00;93646.09;5065788;28;19967;-86
2021/12/15 02:34:31;;;;;;;;;;;;;;;0.79;100.00;93655.94;5066274;28;20027;-84
2021/12/15 02:37:15;;;;;;;;;;;;;;;0.79;100.00;93656.72;5065773;28;20302;-85
2021/12/15 02:39:42;;;;;;;;;;;;;;;0.70;100.00;93656.75;5066563;28;19968;-84
2021/12/15 02:42:09;;;;;;;;;;;;;;;0.35;100.00;93662.28;5065931;28;19928;-86
2021/12/15 02:44:36;;;;;;;;;;;;;;;0.04;100.00;93656.59;5066040;28;19960;-84
2021/12/15 02:47:04;;;;;;;;;;;;;;;-0.23;100.00;93653.03;5066317;28;19928;-84
2021/12/15 02:49:31;;;;;;;;;;;;;;;-0.25;100.00;93662.44;5065985;28;19939;-87
2021/12/15 02:52:00;;;;;;;;;;;;;;;-0.24;100.00;93667.34;5066141;28;19978;-85
2021/12/15 02:54:31;;;;;;;;;;;;;;;-0.16;100.00;93667.50;5065941;28;20018;-84
2021/12/15 02:57:05;;;;;;;;;;;;;;;-0.23;100.00;93668.94;5065828;28;19929;-85
2021/12/15 02:59:40;;;;;;;;;;;;;;;-0.25;100.00;93670.00;5065749;28;19940;-83
2021/12/15 03:02:16;;;;;;;;;;;;;;;-0.35;100.00;93665.75;5065747;28;19929;-84
2021/12/15 03:04:47;;;;;;;;;;;;;;;-0.14;100.00;93664.84;5065635;28;19939;-86
2021/12/15 03:07:24;;;;;;;;;;;;;;;-0.54;100.00;93669.84;5065842;28;19924;-87
2021/12/15 03:15:29;;;;;;;;;;;;;;;-1.14;100.00;93677.38;5069996;28;21198;-85
2021/12/15 03:17:58;;;;;;;;;;;;;;;-1.10;100.00;93674.47;5069811;28;19924;-86
2021/12/15 03:20:25;;;;;;;;;;;;;;;-1.17;100.00;93670.84;5069792;28;19933;-84
2021/12/15 03:22:54;;;;;;;;;;;;;;;-1.14;100.00;93675.66;5069482;28;19970;-85
2021/12/15 03:25:24;;;;;;;;;;;;;;;-1.19;100.00;93677.75;5069819;28;20298;-85
2021/12/15 03:36:05;;;;;;;;;;;;;;;-0.78;100.00;93687.06;5066515;28;20630;-85
2021/12/15 03:38:34;;;;;;;;;;;;;;;-0.63;100.00;93685.78;5069306;28;19928;-85
2021/12/15 03:41:01;;;;;;;;;;;;;;;-0.50;100.00;93685.53;5069290;28;19939;-86
2021/12/15 03:43:28;;;;;;;;;;;;;;;-0.39;100.00;93686.34;5069199;28;19928;-85
2021/12/15 03:45:55;;;;;;;;;;;;;;;-0.28;100.00;93687.03;5069213;28;19938;-85
2021/12/15 03:48:24;;;;;;;;;;;;;;;-0.14;100.00;93687.56;5069194;28;19986;-85
2021/12/15 03:50:52;;;;;;;;;;;;;;;-0.03;100.00;93691.69;5068832;28;20421;-85
2021/12/15 03:53:19;;;;;;;;;;;;;;;0.04;100.00;93677.59;5069202;28;19971;-86
2021/12/15 03:55:51;;;;;;;;;;;;;;;0.21;100.00;93677.84;5069624;28;19928;-87
2021/12/15 03:58:22;;;;;;;;;;;;;;;0.31;100.00;93678.66;5068616;28;20402;-91
2021/12/15 04:00:50;;;;;;;;;;;;;;;0.43;100.00;93683.56;5069233;28;19932;-86
2021/12/15 04:03:18;;;;;;;;;;;;;;;0.51;100.00;93681.94;5068686;28;19924;-86
2021/12/15 04:05:45;;;;;;;;;;;;;;;0.58;100.00;93686.44;5068388;28;19933;-87
2021/12/15 04:08:12;;;;;;;;;;;;;;;0.66;100.00;93689.09;5068325;28;20295;-86
2021/12/15 04:10:38;;;;;;;;;;;;;;;0.70;100.00;93687.91;5067811;28;19925;-91
2021/12/15 04:13:13;;;;;;;;;;;;;;;0.67;100.00;93695.75;5067913;28;20448;-85
2021/12/15 04:15:46;;;;;;;;;;;;;;;0.66;100.00;93694.94;5068080;28;19932;-85
2021/12/15 04:18:13;;;;;;;;;;;;;;;0.62;100.00;93706.28;5068299;28;19932;-86
2021/12/15 04:20:41;;;;;;;;;;;;;;;-0.12;100.00;93716.03;5067924;28;20048;-85
2021/12/15 04:23:09;;;;;;;;;;;;;;;-0.65;100.00;93717.88;5067703;28;19932;-85
2021/12/15 04:25:36;;;;;;;;;;;;;;;-1.10;100.00;93719.06;5067929;28;20023;-86
2021/12/15 04:28:04;;;;;;;;;;;;;;;-1.11;100.00;93718.25;5067949;28;20530;-79
2021/12/15 04:30:34;;;;;;;;;;;;;;;-1.22;100.00;93724.19;5068396;28;19924;-86
2021/12/15 04:33:03;;;;;;;;;;;;;;;-1.37;100.00;93726.22;5068172;28;19940;-86
2021/12/15 04:35:31;;;;;;;;;;;;;;;-1.22;100.00;93733.44;5068472;28;19937;-86
2021/12/15 04:37:59;;;;;;;;;;;;;;;-1.26;100.00;93737.13;5068222;28;19924;-87
2021/12/15 04:40:26;;;;;;;;;;;;;;;-1.18;100.00;93736.50;5067954;28;19932;-87
2021/12/15 04:42:59;;;;;;;;;;;;;;;-1.25;100.00;93738.75;5067831;28;20313;-85
2021/12/15 04:45:29;;;;;;;;;;;;;;;-1.43;100.00;93741.81;5068102;28;20002;-86
2021/12/15 04:47:58;;;;;;;;;;;;;;;-1.27;100.00;93738.06;5068945;28;19935;-85
2021/12/15 04:50:26;;;;;;;;;;;;;;;-1.17;100.00;93741.44;5068570;28;19924;-87
2021/12/15 04:52:53;;;;;;;;;;;;;;;-1.30;100.00;93746.66;5072861;28;19930;-87
2021/12/15 04:55:21;;;;;;;;;;;;;;;-1.19;100.00;93748.34;5073220;28;19982;-85
2021/12/15 04:57:50;;;;;;;;;;;;;;;-1.46;100.00;93749.63;5072795;28;19928;-88
2021/12/15 05:00:21;;;;;;;;;;;;;;;-1.57;100.00;93749.69;5073369;28;20290;-86
2021/12/15 05:02:50;;;;;;;;;;;;;;;-1.49;100.00;93749.88;5073204;28;20038;-90
2021/12/15 05:05:18;;;;;;;;;;;;;;;-1.37;100.00;93755.66;5073004;28;19960;-86
2021/12/15 05:07:44;;;;;;;;;;;;;;;-1.50;100.00;93753.31;5073122;28;19931;-86
2021/12/15 05:10:11;;;;;;;;;;;;;;;-1.63;100.00;93759.31;5073205;28;20297;-87
2021/12/15 05:12:44;;;;;;;;;;;;;;;-1.43;100.00;93756.94;5072995;28;20031;-87
2021/12/15 05:15:11;;;;;;;;;;;;;;;-1.67;100.00;93759.69;5072981;28;19924;-86
2021/12/15 05:17:38;;;;;;;;;;;;;;;-1.70;100.00;93759.94;5072736;28;19931;-87
2021/12/15 05:20:09;;;;;;;;;;;;;;;-1.71;100.00;93749.03;5072673;28;19936;-86
2021/12/15 05:22:37;;;;;;;;;;;;;;;-1.85;100.00;93757.69;5072749;28;19970;-86
2021/12/15 05:25:07;;;;;;;;;;;;;;;-1.91;100.00;93758.16;5072711;28;19924;-86
2021/12/15 05:27:35;;;;;;;;;;;;;;;-1.81;100.00;93751.50;5072726;28;19932;-86
2021/12/15 05:30:01;;;;;;;;;;;;;;;-1.66;100.00;93753.75;5072446;28;19963;-87
2021/12/15 05:32:28;;;;;;;;;;;;;;;-1.66;100.00;93753.75;5072481;28;19928;-86
2021/12/15 05:34:58;;;;;;;;;;;;;;;-1.66;100.00;93759.56;5072079;28;20015;-88
2021/12/15 05:37:25;;;;;;;;;;;;;;;-1.39;100.00;93760.81;5072483;28;20455;-86
2021/12/15 05:39:53;;;;;;;;;;;;;;;-1.50;100.00;93761.69;5072265;28;20290;-87
2021/12/15 05:42:22;;;;;;;;;;;;;;;-1.22;100.00;93764.50;5072353;28;19931;-86
2021/12/15 05:44:49;;;;;;;;;;;;;;;-1.04;100.00;93760.59;5072175;28;19924;-87
2021/12/15 05:47:19;;;;;;;;;;;;;;;-1.09;100.00;93761.00;5072470;28;19925;-85
2021/12/15 05:49:47;;;;;;;;;;;;;;;-1.04;100.00;93770.69;5064340;28;20283;-85
2021/12/15 05:52:14;;;;;;;;;;;;;;;-0.95;100.00;93762.38;5072177;28;19925;-86
2021/12/15 05:54:43;;;;;;;;;;;;;;;-1.00;100.00;93761.97;5072019;28;20383;-86
2021/12/15 05:57:12;;;;;;;;;;;;;;;-1.10;100.00;93765.22;5071952;28;20409;-87
2021/12/15 05:59:45;;;;;;;;;;;;;;;-1.16;100.00;93767.47;3987823;28;10019996;-89
2021/12/15 06:02:13;;;;;;;;;;;;;;;-1.26;100.00;93769.91;3496171;28;10001982;-86
2021/12/15 06:04:40;;;;;;;;;;;;;;;-1.62;100.00;93771.00;5091952;28;19928;-86
2021/12/15 06:07:08;;;;;;;;;;;;;;;-1.39;100.00;93767.59;5092182;28;19978;-86
2021/12/15 06:09:35;;;;;;;;;;;;;;;-1.19;100.00;93767.69;5091993;28;20429;-87
2021/12/15 06:12:02;;;;;;;;;;;;;;;-0.93;100.00;93773.13;5092308;28;19975;-88
2021/12/15 06:14:30;;;;;;;;;;;;;;;-0.71;100.00;93763.81;5092039;28;19974;-89
2021/12/15 06:17:00;;;;;;;;;;;;;;;-0.59;100.00;93764.53;5092229;28;19963;-87
2021/12/15 06:19:29;;;;;;;;;;;;;;;-0.39;100.00;93765.38;5091829;28;19924;-86
2021/12/15 06:22:00;;;;;;;;;;;;;;;-0.23;100.00;93774.22;5091791;28;19934;-91
2021/12/15 06:24:27;;;;;;;;;;;;;;;-0.09;100.00;93773.03;5090683;28;19928;-87
2021/12/15 06:26:56;;;;;;;;;;;;;;;-0.19;100.00;93781.38;5092073;28;20011;-87
2021/12/15 06:29:23;;;;;;;;;;;;;;;-0.19;100.00;93781.38;5091832;28;19931;-88
2021/12/15 06:32:05;;;;;;;;;;;;;;;-0.36;100.00;93772.72;5091808;28;19925;-88
2021/12/15 06:34:40;;;;;;;;;;;;;;;-0.16;100.00;93768.50;5090394;28;20366;-88
2021/12/15 06:37:09;;;;;;;;;;;;;;;-0.32;100.00;93779.09;5091672;28;19974;-88
2021/12/15 06:39:36;;;;;;;;;;;;;;;-0.80;100.00;93785.56;5091609;28;20011;-88
2021/12/15 06:42:03;;;;;;;;;;;;;;;-0.72;100.00;93773.13;5091854;28;20033;-88
2021/12/15 06:44:32;;;;;;;;;;;;;;;-0.45;100.00;93784.38;5091454;28;19932;-87
2021/12/15 06:58:12;;;;;;;;;;;;;;;-1.02;100.00;93782.25;5091493;28;19931;-87
2021/12/15 07:00:42;;;;;;;;;;;;;;;-1.01;100.00;93780.53;5091546;28;19927;-86
2021/12/15 07:03:09;;;;;;;;;;;;;;;-1.01;100.00;93783.88;5091376;28;20309;-87
2021/12/15 07:05:40;;;;;;;;;;;;;;;-1.24;100.00;93783.19;5091259;28;20382;-87
2021/12/15 07:08:07;;;;;;;;;;;;;;;-1.22;100.00;93789.72;5091066;28;19931;-86
2021/12/15 07:10:35;;;;;;;;;;;;;;;-1.26;100.00;93787.53;5091073;28;19935;-87
2021/12/15 07:13:02;;;;;;;;;;;;;;;-1.02;100.00;93799.13;5091556;28;19975;-87
2021/12/15 07:15:29;;;;;;;;;;;;;;;-0.90;100.00;93794.78;5091356;28;19974;-88
2021/12/15 07:18:02;;;;;;;;;;;;;;;-0.95;100.00;93801.03;5091324;28;19975;-88
2021/12/15 07:20:36;;;;;;;;;;;;;;;-1.25;100.00;93805.06;5090900;28;19924;-87
2021/12/15 07:23:05;;;;;;;;;;;;;;;-1.32;100.00;93793.88;5091247;28;20290;-87
2021/12/15 07:25:36;;;;;;;;;;;;;;;-1.27;100.00;93803.59;5091140;28;19958;-86
2021/12/15 07:28:04;;;;;;;;;;;;;;;-0.99;100.00;93812.28;5091270;28;19998;-86
2021/12/15 07:30:31;;;;;;;;;;;;;;;-1.26;100.00;93807.72;5090983;28;19928;-87
2021/12/15 07:32:58;;;;;;;;;;;;;;;-1.36;100.00;93815.22;5090785;28;19993;-87
2021/12/15 07:35:26;;;;;;;;;;;;;;;-1.42;100.00;93813.19;5091492;28;19991;-87
2021/12/15 07:37:53;;;;;;;;;;;;;;;-1.29;100.00;93810.50;5091100;28;20481;-87
2021/12/15 07:40:22;;;;;;;;;;;;;;;-1.36;100.00;93808.47;5091124;28;19924;-86
2021/12/15 07:43:04;;;;;;;;;;;;;;;-1.26;100.00;93805.19;5090904;28;20019;-86
2021/12/15 07:45:31;;;;;;;;;;;;;;;-1.36;100.00;93815.22;5090821;28;19973;-87
2021/12/15 07:47:59;;;;;;;;;;;;;;;-1.45;100.00;93816.75;5090765;28;19967;-85
2021/12/15 07:50:26;;;;;;;;;;;;;;;-1.46;100.00;93821.91;5089487;28;19924;-86
2021/12/15 07:52:53;;;;;;;;;;;;;;;-1.28;100.00;93822.16;5090854;28;20374;-85
2021/12/15 07:55:22;;;;;;;;;;;;;;;-1.39;100.00;93823.81;5090861;28;20010;-87
2021/12/15 07:57:51;;;;;;;;;;;;;;;-1.26;100.00;93818.59;5091554;28;19982;-85
2021/12/15 08:00:18;;;;;;;;;;;;;;;-1.24;100.00;93821.00;5094454;28;20263;-86
2021/12/15 08:02:45;;;;;;;;;;;;;;;-1.35;100.00;93826.88;5094708;28;19977;-85
2021/12/15 08:05:12;;;;;;;;;;;;;;;-1.52;100.00;93831.53;5094696;28;20044;-86
2021/12/15 08:07:41;;;;;;;;;;;;;;;-1.60;100.00;93833.88;5094536;28;19924;-87
2021/12/15 08:10:10;;;;;;;;;;;;;;;-1.63;100.00;93834.09;5094418;28;19934;-86
2021/12/15 08:12:38;;;;;;;;;;;;;;;-1.57;100.00;93831.09;5094132;28;19997;-86
2021/12/15 08:15:17;;;;;;;;;;;;;;;;;;;;;
2021/12/15 08:17:48;;;;;;;;;;;;;;;-1.72;100.00;93845.69;5092459;28;19924;-87
2021/12/15 08:20:14;;;;;;;;;;;;;;;-1.72;100.00;93853.25;5094274;28;19924;-87
2021/12/15 08:22:41;;;;;;;;;;;;;;;-1.79;100.00;93857.97;5093632;28;19924;-85
2021/12/15 08:25:09;;;;;;;;;;;;;;;-1.95;100.00;93853.28;5094108;28;19966;-88
2021/12/15 08:27:37;;;;;;;;;;;;;;;-2.03;100.00;93850.56;5094338;28;19970;-85
2021/12/15 08:30:06;;;;;;;;;;;;;;;-1.99;100.00;93854.44;5094240;28;19930;-88
2021/12/15 08:32:33;;;;;;;;;;;;;;;-2.02;100.00;93865.56;5094253;28;19924;-91
2021/12/15 08:34:59;;;;;;;;;;;;;;;-2.04;100.00;93857.31;5093929;28;19935;-85
2021/12/15 08:37:34;;;;;;;;;;;;;;;-1.99;100.00;93859.47;5094428;28;19946;-86
2021/12/15 08:40:00;;;;;;;;;;;;;;;-1.96;100.00;93855.91;5094005;28;19931;-86
2021/12/15 08:42:29;;;;;;;;;;;;;;;-2.04;100.00;93862.34;5094009;28;19971;-86
2021/12/15 08:44:57;;;;;;;;;;;;;;;-2.13;100.00;93870.56;5093680;28;19924;-84
2021/12/15 08:47:24;;;;;;;;;;;;;;;-2.22;100.00;93866.25;5093935;28;19946;-86
2021/12/15 08:49:53;;;;;;;;;;;;;;;-2.20;100.00;93870.25;5093708;28;19960;-86
2021/12/15 08:52:21;;;;;;;;;;;;;;;-2.17;100.00;93869.22;5093889;28;19931;-86
2021/12/15 08:54:49;;;;;;;;;;;;;;;-2.28;100.00;93865.78;5093368;28;19958;-85
2021/12/15 08:57:16;;;;;;;;;;;;;;;-2.09;100.00;93866.91;5093547;28;20382;-87
2021/12/15 08:59:42;;;;;;;;;;;;;;;-2.16;100.00;93873.34;5093657;28;19924;-86
2021/12/15 09:02:13;;;;;;;;;;;;;;;-2.10;100.00;93877.91;5093597;28;19970;-85
2021/12/15 09:04:40;;;;;;;;;;;;;;;-2.02;100.00;93884.88;5093446;28;19934;-86
2021/12/15 09:07:06;;;;;;;;;;;;;;;-1.85;100.00;93886.13;5093621;28;20020;-86
2021/12/15 09:09:35;;;;;;;;;;;;;;;-1.66;100.00;93890.53;5092407;28;19971;-86
2021/12/15 09:12:18;;;;;;;;;;;;;;;;;;;;;
2021/12/15 09:14:45;;;;;;;;;;;;;;;-1.59;100.00;93890.09;5092900;28;19930;-86
2021/12/15 09:17:16;;;;;;;;;;;;;;;-1.86;100.00;93886.25;5092999;28;20377;-88
2021/12/15 09:19:43;;;;;;;;;;;;;;;-2.01;100.00;93881.44;5093146;28;19978;-87
2021/12/15 09:22:10;;;;;;;;;;;;;;;-1.93;100.00;93870.81;5093421;28;19934;-86
2021/12/15 09:24:37;;;;;;;;;;;;;;;-1.92;100.00;93873.22;5093260;28;19948;-86
2021/12/15 09:27:06;;;;;;;;;;;;;;;-2.16;100.00;93875.88;5092913;28;19928;-86
2021/12/15 09:29:32;;;;;;;;;;;;;;;-2.25;100.00;93879.06;5092854;28;21072;-86
2021/12/15 09:32:02;;;;;;;;;;;;;;;-2.10;100.00;93867.84;5092863;28;19930;-86
2021/12/15 09:34:30;;;;;;;;;;;;;;;-2.13;100.00;93869.78;5092683;28;19935;-86
2021/12/15 09:37:02;;;;;;;;;;;;;;;-1.89;100.00;93872.19;5092031;28;20203;-87
2021/12/15 09:39:29;;;;;;;;;;;;;;;-1.95;100.00;93877.69;5092654;28;19939;-87
2021/12/15 09:41:55;;;;;;;;;;;;;;;-2.00;100.00;93867.94;5092863;28;20398;-86
2021/12/15 09:44:25;;;;;;;;;;;;;;;-1.90;100.00;93876.41;5092501;28;20032;-87
2021/12/15 09:47:22;;;;;;;;;;;;;;;-1.96;100.00;93871.03;5092808;28;19927;-86
2021/12/15 10:03:48;;;;;;;;;;;;;;;-1.74;100.00;93867.69;5092445;28;20020;-86
2021/12/15 10:06:28;;;;;;;;;;;;;;;-1.84;100.00;93869.28;5092263;28;20413;-86
2021/12/15 10:11:54;;;;;;;;;;;;;;;-1.67;100.00;93860.47;5094621;28;20021;-87
2021/12/15 10:20:06;;;;;;;;;;;;;;;-1.53;100.00;93861.91;5031927;28;19925;-87
2021/12/15 10:22:40;;;;;;;;;;;;;;;-1.65;100.00;93858.63;5032322;28;19932;-88
2021/12/15 10:25:13;;;;;;;;;;;;;;;-1.50;100.00;93861.66;5030493;28;20391;-88
2021/12/15 10:27:42;;;;;;;;;;;;;;;-1.39;100.00;93855.78;5031632;28;19929;-88
2021/12/15 10:30:25;;;;;;;;;;;;;;;-1.25;100.00;93852.97;5094374;28;19928;-87
2021/12/15 10:32:55;;;;;;;;;;;;;;;-1.22;100.00;93849.41;5092076;28;19924;-88
2021/12/15 10:35:23;;;;;;;;;;;;;;;-1.09;100.00;93846.72;5091586;28;19997;-86
2021/12/15 10:38:08;;;;;;;;;;;;;;;-1.06;100.00;93838.09;5091845;28;19934;-86
2021/12/15 10:40:39;;;;;;;;;;;;;;;-1.42;100.00;93841.72;5091578;28;20324;-86
2021/12/15 10:43:06;;;;;;;;;;;;;;;-1.32;100.00;93849.34;5091695;28;19931;-86
2021/12/15 10:45:36;;;;;;;;;;;;;;;-1.24;100.00;93848.75;5091781;28;19928;-85
2021/12/15 10:48:03;;;;;;;;;;;;;;;-1.28;100.00;93849.91;5091622;28;19928;-86
2021/12/15 10:50:30;;;;;;;;;;;;;;;-1.42;100.00;93844.22;5091407;28;20395;-87
2021/12/15 10:52:58;;;;;;;;;;;;;;;-1.34;100.00;93841.13;5091498;28;20294;-86
2021/12/15 10:55:29;;;;;;;;;;;;;;;-1.26;100.00;93845.53;5091609;28;19936;-87
2021/12/15 10:57:58;;;;;;;;;;;;;;;-1.43;100.00;93836.78;5091650;28;20350;-86
2021/12/15 11:00:24;;;;;;;;;;;;;;;-1.28;100.00;93842.34;5091464;28;19994;-86
2021/12/15 11:02:51;;;;;;;;;;;;;;;-1.32;100.00;93839.25;5091524;28;20030;-88
2021/12/15 11:05:22;;;;;;;;;;;;;;;-1.29;100.00;93838.22;5091285;28;19994;-88
2021/12/15 11:07:52;;;;;;;;;;;;;;;-1.18;100.00;93828.09;5091312;28;19976;-86
2021/12/15 11:10:22;;;;;;;;;;;;;;;-1.01;100.00;93828.47;5091123;28;19955;-87
2021/12/15 11:12:50;;;;;;;;;;;;;;;-0.76;100.00;93824.75;5091796;28;19966;-86
2021/12/15 11:15:22;;;;;;;;;;;;;;;-0.73;100.00;93824.50;5091337;28;19983;-86
2021/12/15 11:17:50;;;;;;;;;;;;;;;-0.76;100.00;93822.22;5091246;28;20390;-86
2021/12/15 11:20:18;;;;;;;;;;;;;;;-0.85;100.00;93820.44;5091102;28;20278;-87
2021/12/15 11:22:48;;;;;;;;;;;;;;;-0.75;100.00;93815.47;5091159;28;19935;-86
2021/12/15 11:25:27;;;;;;;;;;;;;;;-0.66;100.00;93821.47;5091152;28;19989;-87
2021/12/15 11:27:55;;;;;;;;;;;;;;;-0.57;100.00;93819.00;5091214;28;19924;-88
2021/12/15 11:30:26;;;;;;;;;;;;;;;-0.35;100.00;93807.13;5091133;28;20375;-87
2021/12/15 11:32:54;;;;;;;;;;;;;;;-0.22;100.00;93801.84;5092247;28;19975;-87
2021/12/15 11:35:38;;;;;;;;;;;;;;;-0.33;100.00;93807.78;5095233;28;19959;-89
2021/12/15 11:38:07;;;;;;;;;;;;;;;-0.35;100.00;93803.78;5095407;28;19924;-89
2021/12/15 11:40:41;;;;;;;;;;;;;;;-0.52;100.00;93795.13;5095724;28;19924;-89
2021/12/15 11:43:08;;;;;;;;;;;;;;;-0.64;100.00;93800.25;5094866;28;19971;-87
2021/12/15 11:45:40;;;;;;;;;;;;;;;-0.76;100.00;93804.56;5095269;28;19968;-86
2021/12/15 11:48:14;;;;;;;;;;;;;;;-0.62;100.00;93795.06;4898123;28;5001526;-87
2021/12/15 11:50:41;;;;;;;;;;;;;;;-0.76;100.00;93808.81;5094724;28;20273;-89
2021/12/15 11:53:12;;;;;;;;;;;;;;;-0.99;100.00;93808.94;5094881;28;19971;-87
2021/12/15 11:55:39;;;;;;;;;;;;;;;-0.90;100.00;93805.69;5094591;28;20037;-87
2021/12/15 11:58:06;;;;;;;;;;;;;;;-0.97;100.00;93807.13;5095012;28;19924;-86
2021/12/15 12:00:33;;;;;;;;;;;;;;;-0.92;100.00;93802.50;5094823;28;19975;-85
2021/12/15 12:03:01;;;;;;;;;;;;;;;-0.79;100.00;93806.53;5094744;28;19924;-86
2021/12/15 12:05:30;;;;;;;;;;;;;;;-0.54;100.00;93800.28;5094648;28;19976;-86
2021/12/15 12:07:58;;;;;;;;;;;;;;;-0.61;100.00;93799.19;5094509;28;19931;-87
2021/12/15 12:10:29;;;;;;;;;;;;;;;-0.38;100.00;93796.50;5094564;28;19963;-86
2021/12/15 12:13:04;;;;;;;;;;;;;;;-0.29;100.00;93798.22;5094600;28;19925;-86
2021/12/15 12:15:32;;;;;;;;;;;;;;;-0.29;100.00;93793.19;5094269;28;20402;-87
2021/12/15 12:18:02;;;;;;;;;;;;;;;-0.24;100.00;93792.81;5094463;28;19935;-86
2021/12/15 12:20:30;;;;;;;;;;;;;;;-0.37;100.00;93798.09;5094279;28;19924;-87
2021/12/15 12:22:59;;;;;;;;;;;;;;;-0.66;100.00;93803.81;5094524;28;20036;-86
2021/12/15 12:25:26;;;;;;;;;;;;;;;-0.54;100.00;93792.72;5094486;28;19924;-87
2021/12/15 12:27:54;;;;;;;;;;;;;;;-0.66;100.00;93793.72;5094150;28;19932;-87
2021/12/15 12:30:24;;;;;;;;;;;;;;;-0.47;100.00;93793.78;5094424;28;19959;-88
2021/12/15 12:32:51;;;;;;;;;;;;;;;-0.45;100.00;93791.97;5094065;28;20376;-86
2021/12/15 12:35:19;;;;;;;;;;;;;;;-0.42;100.00;93791.69;5093879;28;19968;-88
2021/12/15 12:37:53;;;;;;;;;;;;;;;-0.32;100.00;93798.50;5091880;28;19974;-86
2021/12/15 12:40:21;;;;;;;;;;;;;;;-0.23;100.00;93802.75;5094565;28;19969;-87
2021/12/15 12:42:48;;;;;;;;;;;;;;;-0.15;100.00;93797.06;5094582;28;19924;-87
2021/12/15 12:45:18;;;;;;;;;;;;;;;-0.11;100.00;93800.13;5094344;28;20019;-85
2021/12/15 12:48:01;;;;;;;;;;;;;;;-0.12;100.00;93803.59;5094396;28;19928;-85
2021/12/15 12:51:05;;;;;;;;;;;;;;;-0.34;100.00;93806.19;5094343;28;20428;-87
2021/12/15 12:59:26;;;;;;;;;;;;;;;-0.16;100.00;93811.44;5094402;28;19931;-85
2021/12/15 13:01:53;;;;;;;;;;;;;;;-0.06;100.00;93808.94;5094050;28;20445;-85
2021/12/15 13:04:19;;;;;;;;;;;;;;;0.08;100.00;93809.47;5093990;28;19924;-87
2021/12/15 13:06:46;;;;;;;;;;;;;;;0.22;100.00;93798.19;5094113;28;19973;-85
2021/12/15 13:09:16;;;;;;;;;;;;;;;0.34;100.00;93794.63;5093871;28;19924;-85
2021/12/15 13:11:48;;;;;;;;;;;;;;;0.45;100.00;93795.41;5093944;28;20015;-85
2021/12/15 13:14:16;;;;;;;;;;;;;;;0.51;100.00;93802.50;5093951;28;19924;-85
2021/12/15 13:16:44;;;;;;;;;;;;;;;0.59;100.00;93801.81;5093692;28;19928;-85
2021/12/15 13:19:23;;;;;;;;;;;;;;;0.66;100.00;93801.13;5093468;28;19931;-85
2021/12/15 13:22:00;;;;;;;;;;;;;;;0.67;100.00;93812.06;5093436;28;20441;-86
2021/12/15 13:30:24;;;;;;;;;;;;;;;0.20;100.00;93813.50;5093675;28;19946;-85
2021/12/15 13:32:51;;;;;;;;;;;;;;;0.27;100.00;93808.72;5093375;28;20389;-87
2021/12/15 13:35:24;;;;;;;;;;;;;;;0.38;100.00;93802.75;5094231;28;19924;-84
2021/12/15 13:37:52;;;;;;;;;;;;;;;0.42;100.00;93806.63;5093913;28;19977;-85
2021/12/15 13:40:34;;;;;;;;;;;;;;;0.47;100.00;93801.16;5092216;28;19924;-85
2021/12/15 13:43:03;;;;;;;;;;;;;;;0.50;100.00;93795.81;5090918;28;19950;-85
2021/12/15 13:45:32;;;;;;;;;;;;;;;0.60;100.00;93800.91;5092706;28;20352;-85
2021/12/15 13:47:59;;;;;;;;;;;;;;;0.36;100.00;93805.41;5092492;28;20520;-86
2021/12/15 13:50:29;;;;;;;;;;;;;;;0.32;100.00;93799.00;5084941;28;19924;-87
2021/12/15 13:52:58;;;;;;;;;;;;;;;0.23;100.00;93800.59;5086971;28;20037;-86
2021/12/15 13:55:25;;;;;;;;;;;;;;;0.27;100.00;93798.59;5085613;28;19928;-88
2021/12/15 13:58:05;;;;;;;;;;;;;;;0.38;100.00;93795.16;5087003;28;19932;-88
2021/12/15 14:00:35;;;;;;;;;;;;;;;0.49;100.00;93787.44;5087476;28;19959;-87